sensor_id;sensor_type;location;lat;lon;timestamp;P1;durP1;ratioP1;P2;durP2;ratioP2
64297;SDS011;50639;53.270;7.956;2024-02-26T00:00:34;15.00;;;12.15;;
64297;SDS011;50639;53.270;7.956;2024-02-26T00:03:00;14.48;;;11.95;;
64297;SDS011;50639;53.270;7.956;2024-02-26T00:05:26;12.40;;;10.00;;
64297;SDS011;50639;53.270;7.956;2024-02-26T00:07:51;17.55;;;12.85;;
64297;SDS011;50639;53.270;7.956;2024-02-26T00:10:17;23.55;;;16.27;;
64297;SDS011;50639;53.270;7.956;2024-02-26T00:12:43;13.73;;;11.00;;
64297;SDS011;50639;53.270;7.956;2024-02-26T00:15:08;18.48;;;13.27;;
64297;SDS011;50639;53.270;7.956;2024-02-26T00:17:34;16.85;;;14.15;;
64297;SDS011;50639;53.270;7.956;2024-02-26T00:20:01;17.00;;;13.07;;
64297;SDS011;50639;53.270;7.956;2024-02-26T00:22:29;14.63;;;11.23;;
64297;SDS011;50639;53.270;7.956;2024-02-26T00:24:55;15.40;;;11.65;;
64297;SDS011;50639;53.270;7.956;2024-02-26T00:27:21;15.20;;;11.10;;
64297;SDS011;50639;53.270;7.956;2024-02-26T00:29:46;15.75;;;11.32;;
64297;SDS011;50639;53.270;7.956;2024-02-26T00:32:11;16.75;;;12.02;;
64297;SDS011;50639;53.270;7.956;2024-02-26T00:34:37;13.98;;;10.77;;
64297;SDS011;50639;53.270;7.956;2024-02-26T00:37:02;16.95;;;12.90;;
64297;SDS011;50639;53.270;7.956;2024-02-26T00:39:28;20.75;;;15.82;;
64297;SDS011;50639;53.270;7.956;2024-02-26T00:41:53;18.23;;;14.10;;
64297;SDS011;50639;53.270;7.956;2024-02-26T00:44:19;18.25;;;14.20;;
64297;SDS011;50639;53.270;7.956;2024-02-26T00:46:44;17.90;;;14.80;;
64297;SDS011;50639;53.270;7.956;2024-02-26T00:49:10;19.25;;;14.05;;
64297;SDS011;50639;53.270;7.956;2024-02-26T00:51:35;20.15;;;14.70;;
64297;SDS011;50639;53.270;7.956;2024-02-26T00:54:01;18.15;;;13.60;;
64297;SDS011;50639;53.270;7.956;2024-02-26T00:56:27;21.15;;;15.38;;
64297;SDS011;50639;53.270;7.956;2024-02-26T00:58:52;19.10;;;15.43;;
64297;SDS011;50639;53.270;7.956;2024-02-26T01:01:18;17.27;;;13.90;;
64297;SDS011;50639;53.270;7.956;2024-02-26T01:03:43;17.63;;;14.48;;
64297;SDS011;50639;53.270;7.956;2024-02-26T01:06:08;27.08;;;21.23;;
64297;SDS011;50639;53.270;7.956;2024-02-26T01:08:34;41.72;;;32.92;;
64297;SDS011;50639;53.270;7.956;2024-02-26T01:11:00;56.80;;;43.72;;
64297;SDS011;50639;53.270;7.956;2024-02-26T01:13:26;32.75;;;26.08;;
64297;SDS011;50639;53.270;7.956;2024-02-26T01:15:51;22.42;;;18.17;;
64297;SDS011;50639;53.270;7.956;2024-02-26T01:18:17;19.00;;;14.52;;
64297;SDS011;50639;53.270;7.956;2024-02-26T01:20:42;18.55;;;13.77;;
64297;SDS011;50639;53.270;7.956;2024-02-26T01:23:08;22.85;;;16.45;;
64297;SDS011;50639;53.270;7.956;2024-02-26T01:25:33;22.55;;;16.88;;
64297;SDS011;50639;53.270;7.956;2024-02-26T01:27:58;22.17;;;15.95;;
64297;SDS011;50639;53.270;7.956;2024-02-26T01:30:24;29.75;;;20.20;;
64297;SDS011;50639;53.270;7.956;2024-02-26T01:32:49;22.70;;;16.60;;
64297;SDS011;50639;53.270;7.956;2024-02-26T01:35:15;21.67;;;15.70;;
64297;SDS011;50639;53.270;7.956;2024-02-26T01:37:40;21.35;;;15.73;;
64297;SDS011;50639;53.270;7.956;2024-02-26T01:40:06;17.52;;;13.98;;
64297;SDS011;50639;53.270;7.956;2024-02-26T01:42:32;18.73;;;14.73;;
64297;SDS011;50639;53.270;7.956;2024-02-26T01:44:58;18.67;;;13.80;;
64297;SDS011;50639;53.270;7.956;2024-02-26T01:47:24;22.40;;;17.17;;
64297;SDS011;50639;53.270;7.956;2024-02-26T01:49:51;24.80;;;18.23;;
64297;SDS011;50639;53.270;7.956;2024-02-26T01:52:17;30.20;;;21.20;;
64297;SDS011;50639;53.270;7.956;2024-02-26T01:54:43;40.72;;;24.88;;
64297;SDS011;50639;53.270;7.956;2024-02-26T01:57:10;30.67;;;22.45;;
64297;SDS011;50639;53.270;7.956;2024-02-26T01:59:37;47.50;;;27.55;;
64297;SDS011;50639;53.270;7.956;2024-02-26T02:04:32;70.18;;;34.78;;
64297;SDS011;50639;53.270;7.956;2024-02-26T02:06:58;60.85;;;28.42;;
64297;SDS011;50639;53.270;7.956;2024-02-26T02:09:25;84.50;;;31.92;;
64297;SDS011;50639;53.270;7.956;2024-02-26T02:11:52;64.60;;;31.38;;
64297;SDS011;50639;53.270;7.956;2024-02-26T02:14:18;54.97;;;28.52;;
64297;SDS011;50639;53.270;7.956;2024-02-26T02:16:43;50.08;;;30.33;;
64297;SDS011;50639;53.270;7.956;2024-02-26T02:19:09;57.67;;;31.85;;
64297;SDS011;50639;53.270;7.956;2024-02-26T02:21:34;46.05;;;28.40;;
64297;SDS011;50639;53.270;7.956;2024-02-26T02:24:00;45.75;;;30.58;;
64297;SDS011;50639;53.270;7.956;2024-02-26T02:26:25;46.10;;;28.88;;
64297;SDS011;50639;53.270;7.956;2024-02-26T02:28:51;50.03;;;29.20;;
64297;SDS011;50639;53.270;7.956;2024-02-26T02:31:17;38.38;;;25.17;;
64297;SDS011;50639;53.270;7.956;2024-02-26T02:33:43;41.63;;;26.58;;
64297;SDS011;50639;53.270;7.956;2024-02-26T02:36:09;48.30;;;26.52;;
64297;SDS011;50639;53.270;7.956;2024-02-26T02:38:36;43.38;;;26.60;;
64297;SDS011;50639;53.270;7.956;2024-02-26T02:41:02;35.45;;;24.45;;
64297;SDS011;50639;53.270;7.956;2024-02-26T02:43:27;30.27;;;21.15;;
64297;SDS011;50639;53.270;7.956;2024-02-26T02:45:53;30.85;;;21.55;;
64297;SDS011;50639;53.270;7.956;2024-02-26T02:48:18;34.42;;;21.75;;
64297;SDS011;50639;53.270;7.956;2024-02-26T02:50:44;33.67;;;20.60;;
64297;SDS011;50639;53.270;7.956;2024-02-26T02:53:10;29.65;;;19.33;;
64297;SDS011;50639;53.270;7.956;2024-02-26T02:55:35;23.85;;;17.10;;
64297;SDS011;50639;53.270;7.956;2024-02-26T02:58:00;27.73;;;19.33;;
64297;SDS011;50639;53.270;7.956;2024-02-26T03:00:26;29.05;;;21.30;;
64297;SDS011;50639;53.270;7.956;2024-02-26T03:02:51;27.77;;;19.83;;
64297;SDS011;50639;53.270;7.956;2024-02-26T03:05:17;30.45;;;22.33;;
64297;SDS011;50639;53.270;7.956;2024-02-26T03:07:42;26.50;;;19.35;;
64297;SDS011;50639;53.270;7.956;2024-02-26T03:10:07;27.65;;;20.80;;
64297;SDS011;50639;53.270;7.956;2024-02-26T03:12:33;27.15;;;18.15;;
64297;SDS011;50639;53.270;7.956;2024-02-26T03:14:59;21.67;;;15.30;;
64297;SDS011;50639;53.270;7.956;2024-02-26T03:17:30;21.17;;;14.15;;
64297;SDS011;50639;53.270;7.956;2024-02-26T03:19:55;21.10;;;14.27;;
64297;SDS011;50639;53.270;7.956;2024-02-26T03:22:21;16.83;;;11.95;;
64297;SDS011;50639;53.270;7.956;2024-02-26T03:24:47;21.50;;;14.45;;
64297;SDS011;50639;53.270;7.956;2024-02-26T03:27:12;15.15;;;11.40;;
64297;SDS011;50639;53.270;7.956;2024-02-26T03:29:38;16.02;;;11.98;;
64297;SDS011;50639;53.270;7.956;2024-02-26T03:32:07;13.65;;;9.70;;
64297;SDS011;50639;53.270;7.956;2024-02-26T03:34:32;13.57;;;10.38;;
64297;SDS011;50639;53.270;7.956;2024-02-26T03:37:01;13.73;;;9.85;;
64297;SDS011;50639;53.270;7.956;2024-02-26T03:39:27;15.18;;;10.02;;
64297;SDS011;50639;53.270;7.956;2024-02-26T03:41:52;14.55;;;10.23;;
64297;SDS011;50639;53.270;7.956;2024-02-26T03:44:17;13.00;;;8.73;;
64297;SDS011;50639;53.270;7.956;2024-02-26T03:46:43;12.77;;;8.45;;
64297;SDS011;50639;53.270;7.956;2024-02-26T03:49:08;10.27;;;7.13;;
64297;SDS011;50639;53.270;7.956;2024-02-26T03:51:34;12.70;;;8.98;;
64297;SDS011;50639;53.270;7.956;2024-02-26T03:54:00;10.85;;;8.35;;
64297;SDS011;50639;53.270;7.956;2024-02-26T03:56:26;9.90;;;7.45;;
64297;SDS011;50639;53.270;7.956;2024-02-26T03:58:52;11.18;;;7.60;;
64297;SDS011;50639;53.270;7.956;2024-02-26T04:01:18;10.77;;;8.40;;
64297;SDS011;50639;53.270;7.956;2024-02-26T04:03:43;9.60;;;7.68;;
64297;SDS011;50639;53.270;7.956;2024-02-26T04:06:09;11.35;;;6.90;;
64297;SDS011;50639;53.270;7.956;2024-02-26T04:08:36;10.45;;;6.47;;
64297;SDS011;50639;53.270;7.956;2024-02-26T04:11:03;11.82;;;7.88;;
64297;SDS011;50639;53.270;7.956;2024-02-26T04:13:32;10.95;;;7.60;;
64297;SDS011;50639;53.270;7.956;2024-02-26T04:15:58;11.73;;;9.25;;
64297;SDS011;50639;53.270;7.956;2024-02-26T04:20:52;15.90;;;12.00;;
64297;SDS011;50639;53.270;7.956;2024-02-26T04:23:17;13.65;;;9.85;;
64297;SDS011;50639;53.270;7.956;2024-02-26T04:25:42;14.15;;;10.95;;
64297;SDS011;50639;53.270;7.956;2024-02-26T04:28:08;11.15;;;9.07;;
64297;SDS011;50639;53.270;7.956;2024-02-26T04:30:33;11.20;;;8.52;;
64297;SDS011;50639;53.270;7.956;2024-02-26T04:32:59;14.65;;;11.43;;
64297;SDS011;50639;53.270;7.956;2024-02-26T04:35:24;13.77;;;10.10;;
64297;SDS011;50639;53.270;7.956;2024-02-26T04:37:49;14.95;;;11.48;;
64297;SDS011;50639;53.270;7.956;2024-02-26T04:40:15;12.55;;;10.07;;
64297;SDS011;50639;53.270;7.956;2024-02-26T04:42:40;12.30;;;9.95;;
64297;SDS011;50639;53.270;7.956;2024-02-26T04:45:06;12.63;;;9.88;;
64297;SDS011;50639;53.270;7.956;2024-02-26T04:47:33;16.60;;;11.52;;
64297;SDS011;50639;53.270;7.956;2024-02-26T04:49:59;14.75;;;12.13;;
64297;SDS011;50639;53.270;7.956;2024-02-26T04:52:25;14.63;;;10.82;;
64297;SDS011;50639;53.270;7.956;2024-02-26T04:54:50;15.10;;;11.23;;
64297;SDS011;50639;53.270;7.956;2024-02-26T04:57:16;15.20;;;11.05;;
64297;SDS011;50639;53.270;7.956;2024-02-26T04:59:43;15.63;;;12.45;;
64297;SDS011;50639;53.270;7.956;2024-02-26T05:02:10;16.33;;;13.13;;
64297;SDS011;50639;53.270;7.956;2024-02-26T05:04:35;16.65;;;11.77;;
64297;SDS011;50639;53.270;7.956;2024-02-26T05:07:01;15.80;;;11.77;;
64297;SDS011;50639;53.270;7.956;2024-02-26T05:09:26;19.25;;;13.13;;
64297;SDS011;50639;53.270;7.956;2024-02-26T05:11:51;14.80;;;11.77;;
64297;SDS011;50639;53.270;7.956;2024-02-26T05:14:17;15.75;;;12.13;;
64297;SDS011;50639;53.270;7.956;2024-02-26T05:16:43;16.02;;;12.35;;
64297;SDS011;50639;53.270;7.956;2024-02-26T05:19:08;13.43;;;10.48;;
64297;SDS011;50639;53.270;7.956;2024-02-26T05:21:34;15.40;;;12.10;;
64297;SDS011;50639;53.270;7.956;2024-02-26T05:23:59;14.70;;;12.10;;
64297;SDS011;50639;53.270;7.956;2024-02-26T05:26:25;16.55;;;13.20;;
64297;SDS011;50639;53.270;7.956;2024-02-26T05:28:50;25.48;;;17.95;;
64297;SDS011;50639;53.270;7.956;2024-02-26T05:31:16;29.23;;;21.00;;
64297;SDS011;50639;53.270;7.956;2024-02-26T05:33:42;23.83;;;18.35;;
64297;SDS011;50639;53.270;7.956;2024-02-26T05:36:07;13.88;;;12.20;;
64297;SDS011;50639;53.270;7.956;2024-02-26T05:38:33;11.20;;;8.15;;
64297;SDS011;50639;53.270;7.956;2024-02-26T05:40:58;10.55;;;7.80;;
64297;SDS011;50639;53.270;7.956;2024-02-26T05:43:25;15.50;;;10.27;;
64297;SDS011;50639;53.270;7.956;2024-02-26T05:45:50;8.93;;;6.68;;
64297;SDS011;50639;53.270;7.956;2024-02-26T05:48:16;9.57;;;7.00;;
64297;SDS011;50639;53.270;7.956;2024-02-26T05:50:44;10.13;;;6.20;;
64297;SDS011;50639;53.270;7.956;2024-02-26T05:53:12;8.95;;;5.80;;
64297;SDS011;50639;53.270;7.956;2024-02-26T05:55:37;10.07;;;6.60;;
64297;SDS011;50639;53.270;7.956;2024-02-26T05:58:03;7.50;;;5.43;;
64297;SDS011;50639;53.270;7.956;2024-02-26T06:00:29;7.60;;;5.90;;
64297;SDS011;50639;53.270;7.956;2024-02-26T06:02:54;18.80;;;15.18;;
64297;SDS011;50639;53.270;7.956;2024-02-26T06:05:20;9.98;;;7.05;;
64297;SDS011;50639;53.270;7.956;2024-02-26T06:07:45;8.25;;;5.40;;
64297;SDS011;50639;53.270;7.956;2024-02-26T06:10:10;8.70;;;5.28;;
64297;SDS011;50639;53.270;7.956;2024-02-26T06:12:36;6.50;;;4.70;;
64297;SDS011;50639;53.270;7.956;2024-02-26T06:15:02;8.55;;;5.93;;
64297;SDS011;50639;53.270;7.956;2024-02-26T06:17:28;9.00;;;5.32;;
64297;SDS011;50639;53.270;7.956;2024-02-26T06:19:53;9.15;;;5.85;;
64297;SDS011;50639;53.270;7.956;2024-02-26T06:22:19;7.60;;;5.45;;
64297;SDS011;50639;53.270;7.956;2024-02-26T06:24:44;7.70;;;5.70;;
64297;SDS011;50639;53.270;7.956;2024-02-26T06:27:10;12.10;;;5.40;;
64297;SDS011;50639;53.270;7.956;2024-02-26T06:29:35;7.82;;;5.95;;
64297;SDS011;50639;53.270;7.956;2024-02-26T06:32:00;9.65;;;6.07;;
64297;SDS011;50639;53.270;7.956;2024-02-26T06:34:26;10.77;;;6.05;;
64297;SDS011;50639;53.270;7.956;2024-02-26T06:36:51;7.60;;;5.60;;
64297;SDS011;50639;53.270;7.956;2024-02-26T06:39:17;8.27;;;5.40;;
64297;SDS011;50639;53.270;7.956;2024-02-26T06:41:43;10.63;;;6.20;;
64297;SDS011;50639;53.270;7.956;2024-02-26T06:44:08;8.75;;;5.68;;
64297;SDS011;50639;53.270;7.956;2024-02-26T06:46:34;9.30;;;5.40;;
64297;SDS011;50639;53.270;7.956;2024-02-26T06:48:59;7.30;;;5.28;;
64297;SDS011;50639;53.270;7.956;2024-02-26T06:51:25;7.95;;;5.28;;
64297;SDS011;50639;53.270;7.956;2024-02-26T06:53:50;9.68;;;5.35;;
64297;SDS011;50639;53.270;7.956;2024-02-26T06:56:16;8.05;;;5.25;;
64297;SDS011;50639;53.270;7.956;2024-02-26T06:58:41;8.10;;;5.97;;
64297;SDS011;50639;53.270;7.956;2024-02-26T07:01:06;7.72;;;5.75;;
64297;SDS011;50639;53.270;7.956;2024-02-26T07:03:33;8.88;;;5.35;;
64297;SDS011;50639;53.270;7.956;2024-02-26T07:05:59;6.63;;;5.05;;
64297;SDS011;50639;53.270;7.956;2024-02-26T07:08:25;7.55;;;5.65;;
64297;SDS011;50639;53.270;7.956;2024-02-26T07:10:50;7.13;;;4.85;;
64297;SDS011;50639;53.270;7.956;2024-02-26T07:13:16;7.15;;;4.72;;
64297;SDS011;50639;53.270;7.956;2024-02-26T07:15:41;6.57;;;4.90;;
64297;SDS011;50639;53.270;7.956;2024-02-26T07:18:07;6.65;;;4.70;;
64297;SDS011;50639;53.270;7.956;2024-02-26T07:20:32;8.15;;;5.10;;
64297;SDS011;50639;53.270;7.956;2024-02-26T07:22:58;8.38;;;5.57;;
64297;SDS011;50639;53.270;7.956;2024-02-26T07:25:23;7.97;;;5.35;;
64297;SDS011;50639;53.270;7.956;2024-02-26T07:27:52;8.10;;;5.30;;
64297;SDS011;50639;53.270;7.956;2024-02-26T07:30:17;9.82;;;5.22;;
64297;SDS011;50639;53.270;7.956;2024-02-26T07:32:43;6.32;;;4.55;;
64297;SDS011;50639;53.270;7.956;2024-02-26T07:35:08;9.52;;;5.47;;
64297;SDS011;50639;53.270;7.956;2024-02-26T07:37:34;9.05;;;5.95;;
64297;SDS011;50639;53.270;7.956;2024-02-26T07:39:59;7.97;;;6.07;;
64297;SDS011;50639;53.270;7.956;2024-02-26T07:42:25;8.18;;;5.63;;
64297;SDS011;50639;53.270;7.956;2024-02-26T07:44:51;7.90;;;6.10;;
64297;SDS011;50639;53.270;7.956;2024-02-26T07:47:17;7.78;;;5.70;;
64297;SDS011;50639;53.270;7.956;2024-02-26T07:49:43;8.25;;;5.65;;
64297;SDS011;50639;53.270;7.956;2024-02-26T07:52:09;8.18;;;5.45;;
64297;SDS011;50639;53.270;7.956;2024-02-26T07:54:34;7.90;;;5.20;;
64297;SDS011;50639;53.270;7.956;2024-02-26T07:56:59;7.93;;;5.60;;
64297;SDS011;50639;53.270;7.956;2024-02-26T07:59:26;10.47;;;5.43;;
64297;SDS011;50639;53.270;7.956;2024-02-26T08:01:52;8.02;;;5.70;;
64297;SDS011;50639;53.270;7.956;2024-02-26T08:04:18;6.93;;;4.85;;
64297;SDS011;50639;53.270;7.956;2024-02-26T08:06:43;6.32;;;4.65;;
64297;SDS011;50639;53.270;7.956;2024-02-26T08:09:09;7.90;;;5.10;;
64297;SDS011;50639;53.270;7.956;2024-02-26T08:11:34;7.32;;;4.93;;
64297;SDS011;50639;53.270;7.956;2024-02-26T08:14:00;8.00;;;5.70;;
64297;SDS011;50639;53.270;7.956;2024-02-26T08:16:25;7.43;;;6.05;;
64297;SDS011;50639;53.270;7.956;2024-02-26T08:18:51;9.07;;;6.20;;
64297;SDS011;50639;53.270;7.956;2024-02-26T08:21:17;5.88;;;4.38;;
64297;SDS011;50639;53.270;7.956;2024-02-26T08:23:43;7.80;;;5.13;;
64297;SDS011;50639;53.270;7.956;2024-02-26T08:26:08;7.97;;;5.40;;
64297;SDS011;50639;53.270;7.956;2024-02-26T08:28:39;8.27;;;4.95;;
64297;SDS011;50639;53.270;7.956;2024-02-26T08:31:04;6.28;;;4.75;;
64297;SDS011;50639;53.270;7.956;2024-02-26T08:33:30;6.85;;;4.65;;
64297;SDS011;50639;53.270;7.956;2024-02-26T08:35:55;6.63;;;4.43;;
64297;SDS011;50639;53.270;7.956;2024-02-26T08:38:21;6.43;;;4.72;;
64297;SDS011;50639;53.270;7.956;2024-02-26T08:40:47;5.78;;;4.30;;
64297;SDS011;50639;53.270;7.956;2024-02-26T08:43:12;6.13;;;4.10;;
64297;SDS011;50639;53.270;7.956;2024-02-26T08:45:38;6.53;;;4.18;;
64297;SDS011;50639;53.270;7.956;2024-02-26T08:48:03;5.60;;;4.05;;
64297;SDS011;50639;53.270;7.956;2024-02-26T08:50:28;4.57;;;3.50;;
64297;SDS011;50639;53.270;7.956;2024-02-26T08:52:54;5.43;;;3.88;;
64297;SDS011;50639;53.270;7.956;2024-02-26T08:55:19;7.28;;;5.05;;
64297;SDS011;50639;53.270;7.956;2024-02-26T08:57:45;6.53;;;4.85;;
64297;SDS011;50639;53.270;7.956;2024-02-26T09:00:10;5.70;;;3.83;;
64297;SDS011;50639;53.270;7.956;2024-02-26T09:02:36;5.88;;;4.07;;
64297;SDS011;50639;53.270;7.956;2024-02-26T09:05:04;6.03;;;4.28;;
64297;SDS011;50639;53.270;7.956;2024-02-26T09:07:30;6.25;;;4.38;;
64297;SDS011;50639;53.270;7.956;2024-02-26T09:09:56;6.85;;;4.82;;
64297;SDS011;50639;53.270;7.956;2024-02-26T09:12:22;8.60;;;4.95;;
64297;SDS011;50639;53.270;7.956;2024-02-26T09:14:47;6.05;;;4.20;;
64297;SDS011;50639;53.270;7.956;2024-02-26T09:17:13;6.35;;;4.80;;
64297;SDS011;50639;53.270;7.956;2024-02-26T09:19:38;6.10;;;3.97;;
64297;SDS011;50639;53.270;7.956;2024-02-26T09:22:04;5.93;;;4.40;;
64297;SDS011;50639;53.270;7.956;2024-02-26T09:24:29;5.75;;;4.35;;
64297;SDS011;50639;53.270;7.956;2024-02-26T09:26:55;6.22;;;4.68;;
64297;SDS011;50639;53.270;7.956;2024-02-26T09:29:20;6.68;;;4.50;;
64297;SDS011;50639;53.270;7.956;2024-02-26T09:31:46;7.53;;;5.22;;
64297;SDS011;50639;53.270;7.956;2024-02-26T09:34:14;7.70;;;5.10;;
64297;SDS011;50639;53.270;7.956;2024-02-26T09:36:39;7.05;;;4.68;;
64297;SDS011;50639;53.270;7.956;2024-02-26T09:39:05;9.23;;;5.72;;
64297;SDS011;50639;53.270;7.956;2024-02-26T09:41:32;8.02;;;5.60;;
64297;SDS011;50639;53.270;7.956;2024-02-26T09:43:57;7.63;;;5.00;;
64297;SDS011;50639;53.270;7.956;2024-02-26T09:46:25;5.93;;;4.10;;
64297;SDS011;50639;53.270;7.956;2024-02-26T09:48:50;6.57;;;4.63;;
64297;SDS011;50639;53.270;7.956;2024-02-26T09:51:16;6.78;;;5.13;;
64297;SDS011;50639;53.270;7.956;2024-02-26T09:53:43;6.95;;;5.20;;
64297;SDS011;50639;53.270;7.956;2024-02-26T09:56:13;6.22;;;4.55;;
64297;SDS011;50639;53.270;7.956;2024-02-26T09:58:39;8.65;;;5.32;;
64297;SDS011;50639;53.270;7.956;2024-02-26T10:01:08;6.97;;;5.45;;
64297;SDS011;50639;53.270;7.956;2024-02-26T10:03:38;7.72;;;5.85;;
64297;SDS011;50639;53.270;7.956;2024-02-26T10:06:06;7.88;;;5.72;;
64297;SDS011;50639;53.270;7.956;2024-02-26T10:08:35;7.35;;;5.55;;
64297;SDS011;50639;53.270;7.956;2024-02-26T10:11:02;7.45;;;6.10;;
64297;SDS011;50639;53.270;7.956;2024-02-26T10:13:28;7.55;;;4.68;;
64297;SDS011;50639;53.270;7.956;2024-02-26T10:15:53;7.55;;;5.60;;
64297;SDS011;50639;53.270;7.956;2024-02-26T10:18:19;7.22;;;5.20;;
64297;SDS011;50639;53.270;7.956;2024-02-26T10:21:00;7.82;;;4.95;;
64297;SDS011;50639;53.270;7.956;2024-02-26T10:23:26;7.00;;;4.90;;
64297;SDS011;50639;53.270;7.956;2024-02-26T10:25:53;6.95;;;5.00;;
64297;SDS011;50639;53.270;7.956;2024-02-26T10:28:20;7.03;;;5.30;;
64297;SDS011;50639;53.270;7.956;2024-02-26T10:30:45;7.90;;;5.32;;
64297;SDS011;50639;53.270;7.956;2024-02-26T10:33:11;8.55;;;5.93;;
64297;SDS011;50639;53.270;7.956;2024-02-26T10:35:38;8.40;;;5.47;;
64297;SDS011;50639;53.270;7.956;2024-02-26T10:38:06;7.13;;;5.25;;
64297;SDS011;50639;53.270;7.956;2024-02-26T10:40:32;8.10;;;5.90;;
64297;SDS011;50639;53.270;7.956;2024-02-26T10:42:57;7.55;;;5.95;;
64297;SDS011;50639;53.270;7.956;2024-02-26T10:45:23;7.18;;;5.10;;
64297;SDS011;50639;53.270;7.956;2024-02-26T10:47:49;13.88;;;9.77;;
64297;SDS011;50639;53.270;7.956;2024-02-26T10:50:14;14.55;;;9.38;;
64297;SDS011;50639;53.270;7.956;2024-02-26T10:52:43;12.73;;;8.88;;
64297;SDS011;50639;53.270;7.956;2024-02-26T10:55:08;9.85;;;7.15;;
64297;SDS011;50639;53.270;7.956;2024-02-26T10:57:44;11.57;;;8.38;;
64297;SDS011;50639;53.270;7.956;2024-02-26T11:00:10;11.52;;;8.20;;
64297;SDS011;50639;53.270;7.956;2024-02-26T11:02:40;8.77;;;7.10;;
64297;SDS011;50639;53.270;7.956;2024-02-26T11:05:07;9.85;;;7.45;;
64297;SDS011;50639;53.270;7.956;2024-02-26T11:07:36;9.55;;;6.60;;
64297;SDS011;50639;53.270;7.956;2024-02-26T11:10:02;9.05;;;6.22;;
64297;SDS011;50639;53.270;7.956;2024-02-26T11:12:30;9.82;;;6.47;;
64297;SDS011;50639;53.270;7.956;2024-02-26T11:14:57;8.80;;;7.13;;
64297;SDS011;50639;53.270;7.956;2024-02-26T11:17:26;13.15;;;7.75;;
64297;SDS011;50639;53.270;7.956;2024-02-26T11:19:55;9.75;;;6.93;;
64297;SDS011;50639;53.270;7.956;2024-02-26T11:24:47;9.80;;;6.82;;
64297;SDS011;50639;53.270;7.956;2024-02-26T11:27:13;8.70;;;6.67;;
64297;SDS011;50639;53.270;7.956;2024-02-26T11:29:43;8.98;;;6.47;;
64297;SDS011;50639;53.270;7.956;2024-02-26T11:32:19;8.55;;;6.60;;
64297;SDS011;50639;53.270;7.956;2024-02-26T11:34:45;10.35;;;6.85;;
64297;SDS011;50639;53.270;7.956;2024-02-26T11:37:11;9.02;;;7.45;;
64297;SDS011;50639;53.270;7.956;2024-02-26T11:39:41;9.90;;;7.43;;
64297;SDS011;50639;53.270;7.956;2024-02-26T11:42:07;9.00;;;6.70;;
64297;SDS011;50639;53.270;7.956;2024-02-26T11:44:34;10.23;;;7.13;;
64297;SDS011;50639;53.270;7.956;2024-02-26T11:47:13;9.07;;;6.88;;
64297;SDS011;50639;53.270;7.956;2024-02-26T11:49:43;9.30;;;7.32;;
64297;SDS011;50639;53.270;7.956;2024-02-26T11:52:09;9.55;;;7.05;;
64297;SDS011;50639;53.270;7.956;2024-02-26T11:57:27;11.05;;;8.02;;
64297;SDS011;50639;53.270;7.956;2024-02-26T12:05:19;10.27;;;6.50;;
64297;SDS011;50639;53.270;7.956;2024-02-26T12:08:02;12.88;;;8.75;;
64297;SDS011;50639;53.270;7.956;2024-02-26T12:10:46;10.18;;;7.95;;
64297;SDS011;50639;53.270;7.956;2024-02-26T12:13:17;8.93;;;6.28;;
64297;SDS011;50639;53.270;7.956;2024-02-26T12:16:06;9.07;;;6.85;;
64297;SDS011;50639;53.270;7.956;2024-02-26T12:18:31;8.27;;;5.60;;
64297;SDS011;50639;53.270;7.956;2024-02-26T12:21:00;10.13;;;7.47;;
64297;SDS011;50639;53.270;7.956;2024-02-26T12:23:29;9.60;;;7.20;;
64297;SDS011;50639;53.270;7.956;2024-02-26T12:25:58;9.80;;;7.47;;
64297;SDS011;50639;53.270;7.956;2024-02-26T12:28:30;10.65;;;7.22;;
64297;SDS011;50639;53.270;7.956;2024-02-26T12:30:56;11.60;;;7.28;;
64297;SDS011;50639;53.270;7.956;2024-02-26T12:33:24;10.73;;;6.60;;
64297;SDS011;50639;53.270;7.956;2024-02-26T12:35:51;9.35;;;6.63;;
64297;SDS011;50639;53.270;7.956;2024-02-26T12:38:17;10.20;;;7.30;;
64297;SDS011;50639;53.270;7.956;2024-02-26T12:40:44;9.50;;;6.38;;
64297;SDS011;50639;53.270;7.956;2024-02-26T12:43:10;11.10;;;7.47;;
64297;SDS011;50639;53.270;7.956;2024-02-26T12:45:40;9.38;;;7.15;;
64297;SDS011;50639;53.270;7.956;2024-02-26T12:48:06;11.25;;;7.75;;
64297;SDS011;50639;53.270;7.956;2024-02-26T12:50:32;10.55;;;7.45;;
64297;SDS011;50639;53.270;7.956;2024-02-26T12:52:58;10.45;;;6.65;;
64297;SDS011;50639;53.270;7.956;2024-02-26T12:55:24;11.52;;;7.45;;
64297;SDS011;50639;53.270;7.956;2024-02-26T12:57:51;12.57;;;8.50;;
64297;SDS011;50639;53.270;7.956;2024-02-26T13:00:18;11.80;;;7.82;;
64297;SDS011;50639;53.270;7.956;2024-02-26T13:02:47;15.07;;;9.20;;
64297;SDS011;50639;53.270;7.956;2024-02-26T13:05:14;12.05;;;8.00;;
64297;SDS011;50639;53.270;7.956;2024-02-26T13:07:41;13.48;;;9.27;;
64297;SDS011;50639;53.270;7.956;2024-02-26T13:10:08;15.25;;;10.18;;
64297;SDS011;50639;53.270;7.956;2024-02-26T13:12:34;13.35;;;9.40;;
64297;SDS011;50639;53.270;7.956;2024-02-26T13:15:00;13.98;;;9.68;;
64297;SDS011;50639;53.270;7.956;2024-02-26T13:17:26;10.93;;;8.38;;
64297;SDS011;50639;53.270;7.956;2024-02-26T13:19:53;10.82;;;8.30;;
64297;SDS011;50639;53.270;7.956;2024-02-26T13:22:23;12.70;;;8.63;;
64297;SDS011;50639;53.270;7.956;2024-02-26T13:24:55;12.98;;;8.98;;
64297;SDS011;50639;53.270;7.956;2024-02-26T13:27:24;12.68;;;9.25;;
64297;SDS011;50639;53.270;7.956;2024-02-26T13:30:12;11.77;;;8.93;;
64297;SDS011;50639;53.270;7.956;2024-02-26T13:32:38;15.10;;;10.13;;
64297;SDS011;50639;53.270;7.956;2024-02-26T13:35:08;14.52;;;10.05;;
64297;SDS011;50639;53.270;7.956;2024-02-26T13:37:35;12.02;;;9.63;;
64297;SDS011;50639;53.270;7.956;2024-02-26T13:40:08;11.20;;;8.88;;
64297;SDS011;50639;53.270;7.956;2024-02-26T13:42:35;14.15;;;10.05;;
64297;SDS011;50639;53.270;7.956;2024-02-26T13:45:02;13.93;;;10.93;;
64297;SDS011;50639;53.270;7.956;2024-02-26T13:47:28;14.38;;;10.85;;
64297;SDS011;50639;53.270;7.956;2024-02-26T13:49:53;12.15;;;9.57;;
64297;SDS011;50639;53.270;7.956;2024-02-26T13:52:19;14.82;;;10.57;;
64297;SDS011;50639;53.270;7.956;2024-02-26T13:54:45;13.18;;;9.00;;
64297;SDS011;50639;53.270;7.956;2024-02-26T13:57:11;12.43;;;9.23;;
64297;SDS011;50639;53.270;7.956;2024-02-26T13:59:37;18.75;;;12.07;;
64297;SDS011;50639;53.270;7.956;2024-02-26T14:02:02;16.20;;;12.02;;
64297;SDS011;50639;53.270;7.956;2024-02-26T14:04:28;15.18;;;11.98;;
64297;SDS011;50639;53.270;7.956;2024-02-26T14:06:53;18.00;;;12.75;;
64297;SDS011;50639;53.270;7.956;2024-02-26T14:09:19;15.40;;;10.32;;
64297;SDS011;50639;53.270;7.956;2024-02-26T14:11:48;16.40;;;12.23;;
64297;SDS011;50639;53.270;7.956;2024-02-26T14:14:13;13.88;;;10.07;;
64297;SDS011;50639;53.270;7.956;2024-02-26T14:16:39;14.73;;;11.27;;
64297;SDS011;50639;53.270;7.956;2024-02-26T14:19:04;13.25;;;9.18;;
64297;SDS011;50639;53.270;7.956;2024-02-26T14:21:29;12.98;;;9.85;;
64297;SDS011;50639;53.270;7.956;2024-02-26T14:23:55;14.05;;;10.40;;
64297;SDS011;50639;53.270;7.956;2024-02-26T14:26:22;13.23;;;10.55;;
64297;SDS011;50639;53.270;7.956;2024-02-26T14:28:47;13.05;;;10.15;;
64297;SDS011;50639;53.270;7.956;2024-02-26T14:31:13;13.35;;;10.18;;
64297;SDS011;50639;53.270;7.956;2024-02-26T14:33:42;14.07;;;11.30;;
64297;SDS011;50639;53.270;7.956;2024-02-26T14:36:07;13.35;;;10.60;;
64297;SDS011;50639;53.270;7.956;2024-02-26T14:38:33;13.63;;;10.38;;
64297;SDS011;50639;53.270;7.956;2024-02-26T14:40:58;12.77;;;9.50;;
64297;SDS011;50639;53.270;7.956;2024-02-26T14:43:24;14.55;;;10.15;;
64297;SDS011;50639;53.270;7.956;2024-02-26T14:45:49;12.98;;;9.23;;